الصفحة الرئيسية
METAR-TAF:

METAR-TAF

مطار :

مطار ليوبولد سيدار سنغور الدولي

دكار, السنغال

دائرة عرض: 14-44N, خط طول: 017-30W, ارتفاع: 27 متر

مراقبة الطقس الحالي

تاريخ ووقت الإصدار 1ساعة و 32 دقيقة قبل الساعة 03:00UTC
ريح 4 عقدة من الجنوب الغربي
درجة الحرارة 27°درجة مئوية
الرطوبة 79%
ضغط 1012 hPa
الرؤية: 8000 متر
غيوم متفرقة على ارتفاع 1300 قدم

METAR: GOOY 180300Z 22004KT 8000 SCT013 27/23 Q1012

زمن: 04:32 (04:32 UTC)

توقعات

تاريخ ووقت الإصدار 5ساعات و 2 دقيقة قبل الساعة 23:30UTC
التوقعات صالحة من18 الساعة 00 UTC إلى 19 الساعة 06 UTC
ريح 10 عقدة من الجنوب الغربي
الرؤية 10 كم أو أكثر
غيوم متفرقة على ارتفاع 1300 قدم
نظرية الاحتمالات 30% :
مؤقت
من 18 الساعة 06 UTC إلى 18 الساعة 12 UTC
الرؤية: 4500 متر
غيوم مفككة على ارتفاع 1000 قدم
غيوم قليلة على ارتفاع 2500 قدم, مزنة ركامية.
عاصفة رعدية, مطر

TAF: GOOY 172330Z 1800/1906 22010KT 9999 SCT013 PROB30 TEMPO 1806/1812 4500 TSRA BKN010 FEW025CB

أرصاد الطقس والتوقعات من أكثر من 4000 مطار (تقارير الطقس للمطار METAR والتنبؤ بالطقس بالمطارTAF).

المحطات المتاحة هي النقط الصفراء والحمراء على الخريطة.

حرك المؤشر فوق النقطة لمعرفة اسم المحطة.

ثم انقر لمعرفة أرصاد وتوقعات الطقس.

لتغيير الخارطة: اضغط على الأزرار الخضراء مع رمز الصليب الأسود للتكبير. على الزر الأخضر مع شرطة للتصغير، أو على الأسهم الخضراء للخرائط المجاورة.


METAR-TAF: